createdAt,value
2019-03-25T00:00:32.614Z,4.10
2019-03-25T00:03:38.403Z,3.96
2019-03-25T00:06:44.160Z,3.75
2019-03-25T00:09:49.891Z,3.97
2019-03-25T00:12:56.640Z,3.82
2019-03-25T00:16:02.464Z,3.67
2019-03-25T00:19:08.155Z,3.44
2019-03-25T00:22:13.852Z,3.29
2019-03-25T00:25:19.549Z,2.98
2019-03-25T00:28:25.322Z,3.01
2019-03-25T00:31:30.981Z,2.82
2019-03-25T00:34:36.616Z,2.63
2019-03-25T00:37:42.279Z,2.63
2019-03-25T00:40:47.982Z,2.48
2019-03-25T00:43:53.687Z,2.40
2019-03-25T00:46:59.482Z,2.51
2019-03-25T00:50:05.345Z,2.37
2019-03-25T00:53:11.062Z,2.33
2019-03-25T00:56:17.911Z,2.25
2019-03-25T00:59:23.600Z,2.12
2019-03-25T01:02:29.311Z,2.10
2019-03-25T01:05:35.292Z,2.07
2019-03-25T01:08:40.905Z,1.98
2019-03-25T01:11:49.387Z,2.06
2019-03-25T01:14:53.952Z,1.82
2019-03-25T01:17:59.955Z,1.82
2019-03-25T01:21:05.632Z,1.68
2019-03-25T01:24:11.395Z,1.64
2019-03-25T01:27:17.011Z,1.58
2019-03-25T01:30:23.702Z,1.47
2019-03-25T01:33:29.466Z,1.57
2019-03-25T01:36:35.167Z,1.27
2019-03-25T01:39:40.822Z,1.45
2019-03-25T01:42:46.686Z,1.46
2019-03-25T01:45:52.378Z,1.35
2019-03-25T01:48:58.058Z,1.20
2019-03-25T01:52:03.773Z,1.04
2019-03-25T01:55:13.681Z,0.93
2019-03-25T01:58:16.967Z,1.24
2019-03-25T02:01:22.739Z,1.20
2019-03-25T02:04:28.456Z,1.24
2019-03-25T02:07:34.057Z,1.12
2019-03-25T02:10:39.747Z,0.99
2019-03-25T02:13:45.407Z,0.89
2019-03-25T02:16:51.089Z,0.94
2019-03-25T02:19:56.761Z,0.73
2019-03-25T02:23:02.762Z,0.68
2019-03-25T02:26:08.679Z,0.79
2019-03-25T02:29:14.318Z,0.69
2019-03-25T02:32:20.002Z,0.78
2019-03-25T02:35:25.667Z,0.71
2019-03-25T02:38:31.355Z,0.70
2019-03-25T02:41:38.099Z,0.62
2019-03-25T02:44:43.739Z,0.54
2019-03-25T02:47:49.430Z,0.49
2019-03-25T02:50:55.167Z,0.49
2019-03-25T02:54:00.829Z,0.49
2019-03-25T02:57:06.505Z,0.33
2019-03-25T03:00:12.948Z,0.26
2019-03-25T03:03:18.678Z,0.13
2019-03-25T03:06:24.401Z,-0.01
2019-03-25T03:09:30.086Z,0.31
2019-03-25T03:12:35.798Z,0.28
2019-03-25T03:15:41.532Z,0.32
2019-03-25T03:18:47.199Z,0.31
2019-03-25T03:21:52.822Z,0.19
2019-03-25T03:24:58.504Z,0.07
2019-03-25T03:28:04.136Z,0.01
2019-03-25T03:31:10.114Z,0.16
2019-03-25T03:34:15.726Z,0.02
2019-03-25T03:37:21.460Z,-0.08
2019-03-25T03:40:27.121Z,0.05
2019-03-25T03:43:32.826Z,-0.14
2019-03-25T03:46:38.503Z,-0.16
2019-03-25T03:49:44.184Z,-0.12
2019-03-25T03:52:49.882Z,-0.06
2019-03-25T03:56:11.538Z,-0.05
2019-03-25T03:59:04.127Z,-0.08
2019-03-25T04:02:09.825Z,-0.05
2019-03-25T04:05:15.561Z,-0.06
2019-03-25T04:08:21.264Z,-0.15
2019-03-25T04:11:26.940Z,0.03
2019-03-25T04:14:32.665Z,0.04
2019-03-25T04:17:38.418Z,0.14
2019-03-25T04:20:44.137Z,0.15
2019-03-25T04:23:49.789Z,0.25
2019-03-25T04:26:55.845Z,0.40
2019-03-25T04:30:01.600Z,0.51
2019-03-25T04:33:07.551Z,0.53
2019-03-25T04:36:13.244Z,0.65
2019-03-25T04:39:19.226Z,0.89
2019-03-25T04:42:24.896Z,0.71
2019-03-25T04:45:31.835Z,0.77
2019-03-25T04:48:37.673Z,0.68
2019-03-25T04:51:45.040Z,0.65
2019-03-25T04:54:51.106Z,0.48
2019-03-25T04:57:57.103Z,0.42
2019-03-25T05:01:02.904Z,0.41
2019-03-25T05:04:09.162Z,0.23
2019-03-25T05:07:14.834Z,0.15
2019-03-25T05:10:20.492Z,0.04
2019-03-25T05:13:26.223Z,-0.02
2019-03-25T05:16:31.862Z,0.03
2019-03-25T05:19:37.597Z,0.12
2019-03-25T05:22:43.262Z,0.25
2019-03-25T05:25:48.970Z,0.49
2019-03-25T05:28:54.614Z,0.55
2019-03-25T05:32:00.386Z,0.58
2019-03-25T05:35:06.082Z,0.70
2019-03-25T05:38:11.781Z,0.83
2019-03-25T05:41:19.066Z,1.05
2019-03-25T05:44:24.956Z,1.29
2019-03-25T05:47:30.635Z,1.48
2019-03-25T05:50:36.424Z,2.11
2019-03-25T05:53:42.088Z,2.66
2019-03-25T05:56:47.778Z,2.59
2019-03-25T05:59:53.543Z,2.29
2019-03-25T06:02:59.211Z,2.15
2019-03-25T06:06:04.878Z,2.30
2019-03-25T06:09:10.639Z,2.14
2019-03-25T06:12:16.394Z,2.27
2019-03-25T06:15:22.117Z,2.43
2019-03-25T06:18:27.887Z,2.51
2019-03-25T06:21:33.567Z,2.68
2019-03-25T06:24:39.319Z,3.19
2019-03-25T06:27:45.011Z,3.73
2019-03-25T06:30:50.786Z,3.97
2019-03-25T06:33:56.567Z,4.22
2019-03-25T06:37:02.157Z,4.27
2019-03-25T06:40:07.915Z,4.61
2019-03-25T06:43:13.589Z,4.64
2019-03-25T06:46:19.281Z,4.53
2019-03-25T06:49:24.949Z,4.60
2019-03-25T06:52:30.605Z,4.47
2019-03-25T06:55:36.317Z,4.52
2019-03-25T06:58:42.063Z,4.59
2019-03-25T07:01:47.716Z,4.95
2019-03-25T07:04:53.419Z,5.17
2019-03-25T07:07:59.083Z,5.55
2019-03-25T07:11:06.050Z,5.34
2019-03-25T07:14:11.702Z,5.54
2019-03-25T07:17:17.335Z,5.55
2019-03-25T07:20:23.035Z,5.68
2019-03-25T07:23:28.710Z,6.14
2019-03-25T07:26:34.411Z,6.25
2019-03-25T07:29:40.067Z,6.03
2019-03-25T07:32:45.749Z,6.03
2019-03-25T07:35:52.334Z,6.46
2019-03-25T07:39:00.152Z,6.34
2019-03-25T07:42:05.287Z,6.51
2019-03-25T07:45:11.533Z,6.27
2019-03-25T07:48:17.183Z,6.07
2019-03-25T07:51:22.894Z,6.23
2019-03-25T07:54:28.565Z,6.38
2019-03-25T07:57:34.246Z,6.28
2019-03-25T08:00:39.948Z,6.34
2019-03-25T08:03:45.617Z,6.52
2019-03-25T08:06:51.278Z,7.16
2019-03-25T08:09:56.953Z,6.93
2019-03-25T08:13:02.779Z,7.00
2019-03-25T08:16:08.489Z,6.60
2019-03-25T08:19:14.181Z,6.42
2019-03-25T08:22:19.833Z,6.79
2019-03-25T08:25:25.509Z,7.18
2019-03-25T08:28:31.142Z,6.90
2019-03-25T08:31:36.815Z,7.32
2019-03-25T08:34:42.484Z,7.45
2019-03-25T08:37:48.165Z,7.53
2019-03-25T08:40:53.819Z,7.52
2019-03-25T08:43:59.586Z,8.02
2019-03-25T08:47:05.334Z,7.69
2019-03-25T08:50:11.421Z,7.40
2019-03-25T08:53:17.069Z,7.61
2019-03-25T08:56:22.704Z,7.92
2019-03-25T08:59:28.368Z,7.97
2019-03-25T09:02:34.087Z,7.41
2019-03-25T09:05:39.840Z,7.67
2019-03-25T09:08:46.801Z,8.11
2019-03-25T09:11:52.523Z,8.20
2019-03-25T09:14:58.177Z,8.12
2019-03-25T09:18:03.939Z,7.86
2019-03-25T09:21:09.630Z,7.63
2019-03-25T09:24:15.259Z,7.91
2019-03-25T09:27:20.957Z,8.31
2019-03-25T09:31:05.403Z,8.31
2019-03-25T09:34:11.082Z,9.03
2019-03-25T09:37:16.704Z,8.94
2019-03-25T09:40:22.387Z,9.82
2019-03-25T09:43:28.061Z,9.58
2019-03-25T09:46:34.758Z,9.25
2019-03-25T09:49:40.523Z,9.40
2019-03-25T09:52:46.120Z,9.32
2019-03-25T09:55:51.843Z,9.90
2019-03-25T09:58:57.444Z,9.98
2019-03-25T10:02:03.142Z,9.41
2019-03-25T10:05:09.582Z,9.27
2019-03-25T10:08:16.922Z,9.05
2019-03-25T10:11:22.565Z,9.33
2019-03-25T10:14:28.322Z,9.50
2019-03-25T10:17:34.020Z,9.64
2019-03-25T10:20:39.673Z,9.24
2019-03-25T10:23:45.352Z,9.17
2019-03-25T10:26:51.015Z,8.90
2019-03-25T10:29:56.653Z,8.82
2019-03-25T10:33:02.338Z,8.24
2019-03-25T10:36:07.941Z,8.20
2019-03-25T10:39:13.572Z,8.16
2019-03-25T10:42:19.237Z,8.33
2019-03-25T10:45:24.894Z,8.77
2019-03-25T10:48:30.590Z,9.33
2019-03-25T10:51:36.227Z,9.71
2019-03-25T10:54:41.973Z,9.67
2019-03-25T10:57:47.740Z,10.07
2019-03-25T11:00:53.515Z,10.04
2019-03-25T11:03:59.368Z,10.40
2019-03-25T11:07:05.209Z,10.75
2019-03-25T11:10:11.430Z,9.92
2019-03-25T11:13:17.052Z,10.00
2019-03-25T11:16:22.761Z,10.23
2019-03-25T11:19:28.509Z,9.86
2019-03-25T11:22:34.206Z,10.17
2019-03-25T11:25:39.913Z,10.04
2019-03-25T11:28:45.553Z,10.69
2019-03-25T11:31:51.231Z,10.75
2019-03-25T11:34:56.922Z,11.46
2019-03-25T11:38:02.616Z,12.06
2019-03-25T11:41:08.241Z,11.64
2019-03-25T11:44:13.885Z,10.38
2019-03-25T11:47:19.530Z,10.25
2019-03-25T11:50:25.177Z,10.63
2019-03-25T11:53:31.784Z,10.42
2019-03-25T11:56:37.463Z,10.18
2019-03-25T11:59:43.124Z,11.04
2019-03-25T12:02:48.831Z,10.76
2019-03-25T12:05:54.464Z,11.29
2019-03-25T12:09:00.126Z,12.02
2019-03-25T12:12:05.788Z,11.62
2019-03-25T12:15:11.830Z,11.09
2019-03-25T12:18:17.511Z,9.40
2019-03-25T12:21:23.216Z,8.56
2019-03-25T12:24:28.884Z,7.61
2019-03-25T12:27:34.534Z,7.26
2019-03-25T12:30:40.183Z,6.72
2019-03-25T12:33:45.862Z,6.27
2019-03-25T12:36:51.534Z,6.00
2019-03-25T12:39:57.182Z,6.22
2019-03-25T12:43:02.844Z,6.75
2019-03-25T12:46:08.513Z,7.02
2019-03-25T12:49:14.247Z,7.68
2019-03-25T12:52:19.914Z,8.03
2019-03-25T12:55:25.629Z,8.42
2019-03-25T12:58:31.266Z,9.03
2019-03-25T13:01:36.987Z,8.81
2019-03-25T13:04:42.657Z,8.55
2019-03-25T13:07:48.355Z,8.79
2019-03-25T13:10:53.976Z,8.79
2019-03-25T13:13:59.605Z,8.54
2019-03-25T13:17:05.397Z,8.32
2019-03-25T13:20:11.205Z,8.23
2019-03-25T13:23:16.942Z,8.44
2019-03-25T13:26:22.630Z,8.94
2019-03-25T13:29:28.374Z,9.31
2019-03-25T13:32:33.986Z,9.64
2019-03-25T13:35:39.724Z,10.05
2019-03-25T13:38:45.407Z,9.84
2019-03-25T13:41:51.220Z,9.44
2019-03-25T13:44:57.724Z,9.00
2019-03-25T13:48:03.468Z,8.69
2019-03-25T13:51:09.300Z,8.52
2019-03-25T13:54:14.987Z,8.28
2019-03-25T13:57:20.669Z,8.15
2019-03-25T14:00:44.359Z,7.86
2019-03-25T14:03:49.998Z,7.22
2019-03-25T14:06:55.670Z,6.67
2019-03-25T14:10:01.345Z,6.56
2019-03-25T14:13:07.243Z,7.39
2019-03-25T14:16:12.192Z,7.28
2019-03-25T14:19:17.908Z,7.63
2019-03-25T14:22:23.531Z,8.15
2019-03-25T14:25:29.136Z,8.16
2019-03-25T14:28:34.880Z,7.95
2019-03-25T14:31:40.540Z,8.26
2019-03-25T14:34:46.247Z,8.66
2019-03-25T14:37:51.999Z,8.48
2019-03-25T14:40:57.692Z,8.32
2019-03-25T14:44:03.432Z,7.86
2019-03-25T14:47:09.112Z,8.08
2019-03-25T14:50:14.866Z,8.06
2019-03-25T14:53:20.483Z,8.09
2019-03-25T14:56:26.164Z,8.34
2019-03-25T14:59:31.990Z,8.73
2019-03-25T15:02:37.659Z,9.18
2019-03-25T15:05:43.379Z,8.87
2019-03-25T15:08:52.869Z,8.89
2019-03-25T15:11:59.395Z,8.78
2019-03-25T15:15:05.617Z,8.85
2019-03-25T15:18:15.567Z,9.25
2019-03-25T15:21:18.953Z,8.91
2019-03-25T15:24:24.718Z,9.17
2019-03-25T15:27:30.388Z,9.12
2019-03-25T15:30:36.566Z,9.00
2019-03-25T15:33:42.322Z,8.53
2019-03-25T15:36:48.072Z,7.99
2019-03-25T15:39:53.700Z,7.69
2019-03-25T15:42:59.344Z,7.64
2019-03-25T15:46:05.038Z,7.62
2019-03-25T15:49:10.712Z,7.85
2019-03-25T15:52:16.441Z,7.92
2019-03-25T15:55:22.178Z,8.03
2019-03-25T15:58:27.864Z,8.22
2019-03-25T16:01:33.554Z,8.25
2019-03-25T16:04:39.162Z,8.12
2019-03-25T16:07:44.862Z,7.82
2019-03-25T16:10:51.771Z,7.66
2019-03-25T16:13:57.738Z,7.42
2019-03-25T16:17:03.437Z,7.38
2019-03-25T16:20:09.688Z,7.40
2019-03-25T16:23:15.343Z,7.39
2019-03-25T16:26:21.138Z,7.44
2019-03-25T16:29:26.822Z,7.16
2019-03-25T16:32:32.532Z,7.11
2019-03-25T16:35:38.231Z,7.04
2019-03-25T16:38:43.970Z,7.19
2019-03-25T16:41:49.636Z,7.10
2019-03-25T16:44:55.392Z,7.09
2019-03-25T16:48:01.083Z,7.05
2019-03-25T16:51:06.805Z,7.11
2019-03-25T16:54:12.429Z,7.09
2019-03-25T16:57:18.156Z,7.17
2019-03-25T17:00:27.621Z,7.01
2019-03-25T17:03:31.297Z,6.96
2019-03-25T17:06:37.077Z,7.06
2019-03-25T17:09:42.771Z,7.00
2019-03-25T17:12:48.482Z,6.95
2019-03-25T17:15:54.219Z,6.86
2019-03-25T17:19:02.056Z,7.00
2019-03-25T17:22:07.439Z,6.83
2019-03-25T17:25:16.497Z,6.74
2019-03-25T17:28:22.360Z,6.54
2019-03-25T17:31:35.156Z,6.39
2019-03-25T17:34:41.167Z,6.18
2019-03-25T17:37:47.450Z,5.98
2019-03-25T17:40:53.590Z,5.93
2019-03-25T17:43:59.641Z,5.72
2019-03-25T17:47:05.400Z,5.31
2019-03-25T17:50:11.668Z,5.20
2019-03-25T17:53:17.397Z,4.12
2019-03-25T17:56:23.103Z,3.82
2019-03-25T17:59:29.160Z,3.62
2019-03-25T18:02:36.049Z,3.62
2019-03-25T18:05:41.822Z,3.73
2019-03-25T18:08:47.632Z,3.74
2019-03-25T18:11:53.290Z,3.69
2019-03-25T18:14:59.014Z,3.72
2019-03-25T18:18:04.654Z,3.73
2019-03-25T18:21:10.335Z,3.68
2019-03-25T18:24:16.035Z,3.71
2019-03-25T18:27:21.767Z,3.59
2019-03-25T18:30:33.041Z,3.42
2019-03-25T18:33:38.661Z,3.52
2019-03-25T18:36:44.300Z,3.51
2019-03-25T18:39:50.010Z,3.59
2019-03-25T18:42:55.723Z,3.66
2019-03-25T18:46:01.481Z,3.71
2019-03-25T18:49:07.181Z,3.58
2019-03-25T18:52:12.847Z,3.52
2019-03-25T18:55:18.496Z,3.40
2019-03-25T18:58:24.309Z,3.33
2019-03-25T19:01:30.089Z,3.31
2019-03-25T19:04:35.783Z,3.29
2019-03-25T19:07:44.248Z,3.32
2019-03-25T19:10:50.943Z,3.40
2019-03-25T19:13:56.780Z,3.34
2019-03-25T19:17:05.424Z,3.26
2019-03-25T19:20:10.973Z,3.16
2019-03-25T19:23:16.727Z,2.97
2019-03-25T19:26:22.361Z,2.74
2019-03-25T19:29:28.088Z,2.57
2019-03-25T19:32:33.744Z,2.39
2019-03-25T19:35:39.426Z,2.26
2019-03-25T19:38:46.189Z,2.16
2019-03-25T19:41:51.909Z,2.16
2019-03-25T19:44:57.615Z,2.21
2019-03-25T19:48:03.360Z,2.17
2019-03-25T19:51:09.093Z,1.97
2019-03-25T19:54:14.845Z,2.10
2019-03-25T19:57:20.447Z,2.16
2019-03-25T20:00:35.745Z,2.41
2019-03-25T20:03:41.318Z,2.50
2019-03-25T20:06:46.982Z,2.58
2019-03-25T20:09:52.691Z,2.54
2019-03-25T20:12:58.849Z,2.66
2019-03-25T20:16:04.658Z,2.61
2019-03-25T20:19:11.541Z,2.66
2019-03-25T20:22:17.230Z,2.63
2019-03-25T20:25:22.925Z,2.76
2019-03-25T20:28:28.647Z,2.76
2019-03-25T20:31:34.365Z,2.87
2019-03-25T20:34:40.125Z,2.70
2019-03-25T20:37:45.875Z,2.61
2019-03-25T20:40:51.555Z,2.61
2019-03-25T20:43:57.334Z,2.47
2019-03-25T20:47:03.169Z,2.35
2019-03-25T20:50:09.239Z,2.36
2019-03-25T20:53:15.030Z,2.21
2019-03-25T20:56:20.767Z,1.99
2019-03-25T20:59:26.643Z,2.11
2019-03-25T21:02:44.389Z,1.98
2019-03-25T21:05:39.818Z,2.01
2019-03-25T21:08:45.563Z,2.10
2019-03-25T21:11:51.355Z,1.87
2019-03-25T21:14:57.076Z,1.99
2019-03-25T21:18:02.829Z,2.15
2019-03-25T21:21:08.524Z,2.25
2019-03-25T21:24:14.184Z,2.39
2019-03-25T21:27:20.075Z,2.44
2019-03-25T21:30:28.265Z,2.47
2019-03-25T21:33:33.275Z,2.54
2019-03-25T21:36:39.058Z,2.43
2019-03-25T21:39:44.766Z,2.61
2019-03-25T21:42:50.422Z,2.71
2019-03-25T21:45:56.124Z,2.67
2019-03-25T21:49:01.915Z,2.77
2019-03-25T21:52:07.656Z,2.87
2019-03-25T21:55:13.482Z,2.84
2019-03-25T21:58:19.282Z,2.79
2019-03-25T22:01:25.162Z,2.74
2019-03-25T22:04:30.863Z,2.55
2019-03-25T22:07:36.562Z,2.40
2019-03-25T22:10:43.102Z,2.17
2019-03-25T22:13:50.196Z,2.10
2019-03-25T22:16:56.055Z,2.18
2019-03-25T22:20:01.796Z,2.03
2019-03-25T22:23:07.550Z,1.89
2019-03-25T22:26:13.210Z,1.86
2019-03-25T22:29:18.887Z,1.69
2019-03-25T22:32:24.634Z,1.50
2019-03-25T22:35:30.372Z,1.57
2019-03-25T22:38:36.110Z,1.37
2019-03-25T22:41:41.780Z,1.24
2019-03-25T22:44:47.408Z,1.34
2019-03-25T22:47:53.046Z,1.51
2019-03-25T22:50:58.770Z,1.64
2019-03-25T22:54:04.415Z,1.61
2019-03-25T22:57:11.139Z,1.63
2019-03-25T23:00:19.970Z,1.82
2019-03-25T23:03:38.569Z,1.87
2019-03-25T23:06:34.583Z,2.02
2019-03-25T23:09:40.286Z,1.99
2019-03-25T23:12:46.066Z,2.02
2019-03-25T23:15:51.695Z,2.09
2019-03-25T23:18:57.401Z,2.12
2019-03-25T23:22:03.187Z,2.20
2019-03-25T23:25:08.840Z,2.19
2019-03-25T23:28:14.564Z,2.15
2019-03-25T23:31:20.355Z,2.14
2019-03-25T23:34:26.101Z,2.14
2019-03-25T23:37:31.839Z,2.11
2019-03-25T23:40:37.527Z,2.04
2019-03-25T23:43:43.303Z,2.11
2019-03-25T23:46:48.911Z,2.29
2019-03-25T23:49:55.683Z,2.33
2019-03-25T23:53:01.378Z,2.32
2019-03-25T23:56:07.026Z,2.37
2019-03-25T23:59:13.912Z,2.42
